createdAt,value
2022-10-31T00:00:55.505Z,100951.44
2022-10-31T00:03:22.164Z,100946.81
2022-10-31T00:05:50.344Z,100951.31
2022-10-31T00:08:18.337Z,100943.66
2022-10-31T00:10:46.572Z,100937.00
2022-10-31T00:13:15.148Z,100942.97
2022-10-31T00:15:42.182Z,100938.00
2022-10-31T00:18:10.448Z,100945.53
2022-10-31T00:20:39.407Z,100945.16
2022-10-31T00:23:07.087Z,100953.75
2022-10-31T00:25:36.816Z,100956.56
2022-10-31T00:28:05.411Z,100957.38
2022-10-31T00:30:32.429Z,100968.06
2022-10-31T00:32:59.571Z,100966.59
2022-10-31T00:35:26.805Z,100985.69
2022-10-31T00:37:53.867Z,100985.31
2022-10-31T00:40:20.415Z,100994.41
2022-10-31T00:42:46.974Z,100986.19
2022-10-31T00:45:13.751Z,100993.81
2022-10-31T00:47:40.340Z,100986.47
2022-10-31T00:50:08.540Z,100988.56
2022-10-31T00:52:35.415Z,100989.22
2022-10-31T00:55:02.924Z,100986.88
2022-10-31T00:57:29.626Z,101000.84
2022-10-31T00:59:56.202Z,101004.59
2022-10-31T01:02:22.970Z,101010.44
2022-10-31T01:04:49.622Z,101011.97
2022-10-31T01:07:16.726Z,101022.03
2022-10-31T01:09:45.044Z,101019.44
2022-10-31T01:12:11.735Z,101025.50
2022-10-31T01:14:43.914Z,101021.22
2022-10-31T01:17:10.730Z,101032.56
2022-10-31T01:19:37.286Z,101031.88
2022-10-31T01:22:03.944Z,101034.69
2022-10-31T01:24:30.668Z,101040.00
2022-10-31T01:26:57.260Z,101035.78
2022-10-31T01:29:24.603Z,101035.97
2022-10-31T01:31:51.172Z,101031.47
2022-10-31T01:34:18.212Z,101039.75
2022-10-31T01:36:48.225Z,101040.00
2022-10-31T01:39:16.281Z,101039.97
2022-10-31T01:41:46.250Z,101043.13
2022-10-31T01:44:13.131Z,101038.94
2022-10-31T01:46:51.318Z,101039.94
2022-10-31T01:49:26.925Z,101038.34
2022-10-31T01:52:15.326Z,101033.53
2022-10-31T01:54:51.758Z,101042.81
2022-10-31T01:57:21.096Z,101039.38
2022-10-31T01:59:53.510Z,101035.53
2022-10-31T02:02:21.074Z,101040.59
2022-10-31T02:04:49.045Z,101041.16
2022-10-31T02:07:24.600Z,101046.59
2022-10-31T02:09:53.891Z,101050.34
2022-10-31T02:12:21.393Z,101047.75
2022-10-31T02:14:47.983Z,101055.25
2022-10-31T02:17:16.243Z,101061.75
2022-10-31T02:19:54.973Z,101063.72
2022-10-31T02:22:57.394Z,101060.69
2022-10-31T02:25:54.223Z,101054.09
2022-10-31T02:28:21.289Z,101052.97
2022-10-31T02:31:09.593Z,101051.03
2022-10-31T02:33:45.824Z,101062.59
2022-10-31T02:36:22.849Z,101063.97
2022-10-31T02:39:02.915Z,101066.38
2022-10-31T02:42:10.432Z,101065.06
2022-10-31T02:44:52.677Z,101073.28
2022-10-31T02:47:25.135Z,101065.47
2022-10-31T02:50:01.213Z,101073.63
2022-10-31T02:52:30.088Z,101063.44
2022-10-31T02:55:25.471Z,101073.41
2022-10-31T02:58:03.287Z,101073.84
2022-10-31T03:00:39.098Z,101073.44
2022-10-31T03:03:11.552Z,101072.16
2022-10-31T03:06:05.040Z,101073.38
2022-10-31T03:09:15.148Z,101078.03
2022-10-31T03:12:05.949Z,101090.16
2022-10-31T03:14:55.163Z,101094.69
2022-10-31T03:17:37.651Z,101099.75
2022-10-31T03:20:07.286Z,101104.09
2022-10-31T03:22:35.883Z,101105.75
2022-10-31T03:25:05.138Z,101107.19
2022-10-31T03:27:36.454Z,101107.44
2022-10-31T03:30:06.418Z,101109.50
2022-10-31T03:32:52.482Z,101104.59
2022-10-31T03:35:23.646Z,101104.34
2022-10-31T03:37:52.890Z,101098.28
2022-10-31T03:40:22.965Z,101096.53
2022-10-31T03:42:58.801Z,101098.56
2022-10-31T03:45:30.394Z,101104.81
2022-10-31T03:47:59.687Z,101111.13
2022-10-31T03:50:36.572Z,101109.91
2022-10-31T03:53:14.490Z,101105.41
2022-10-31T03:55:52.199Z,101104.44
2022-10-31T03:58:29.930Z,101100.63
2022-10-31T04:00:58.599Z,101110.97
2022-10-31T04:03:31.010Z,101112.16
2022-10-31T04:06:05.349Z,101107.41
2022-10-31T04:08:36.549Z,101113.75
2022-10-31T04:11:06.539Z,101121.75
2022-10-31T04:13:37.554Z,101124.72
2022-10-31T04:16:17.300Z,101123.50
2022-10-31T04:18:44.999Z,101131.31
2022-10-31T04:21:11.923Z,101134.75
2022-10-31T04:23:38.478Z,101134.41
2022-10-31T04:26:15.363Z,101133.59
2022-10-31T04:28:44.176Z,101134.84
2022-10-31T04:31:13.549Z,101135.28
2022-10-31T04:33:40.986Z,101144.66
2022-10-31T04:36:08.147Z,101149.84
2022-10-31T04:38:35.171Z,101154.84
2022-10-31T04:41:05.790Z,101155.97
2022-10-31T04:43:44.437Z,101152.66
2022-10-31T04:46:11.351Z,101155.97
2022-10-31T04:48:38.144Z,101150.47
2022-10-31T04:51:06.711Z,101153.44
2022-10-31T04:53:34.085Z,101152.47
2022-10-31T04:56:26.948Z,101152.59
2022-10-31T04:58:58.743Z,101139.94
2022-10-31T05:01:26.530Z,101138.88
2022-10-31T05:03:55.724Z,101137.84
2022-10-31T05:06:22.351Z,101125.72
2022-10-31T05:08:49.156Z,101132.13
2022-10-31T05:11:15.771Z,101123.13
2022-10-31T05:13:44.493Z,101128.03
2022-10-31T05:16:14.221Z,101131.94
2022-10-31T05:19:15.655Z,101128.56
2022-10-31T05:22:11.961Z,101134.44
2022-10-31T05:24:38.889Z,101132.75
2022-10-31T05:27:05.457Z,101131.16
2022-10-31T05:29:34.290Z,101139.72
2022-10-31T05:32:03.699Z,101138.16
2022-10-31T05:34:48.993Z,101126.66
2022-10-31T05:37:42.110Z,101131.94
2022-10-31T05:40:12.322Z,101129.25
2022-10-31T05:42:41.201Z,101140.78
2022-10-31T05:45:09.954Z,101137.31
2022-10-31T05:47:53.944Z,101130.44
2022-10-31T05:50:39.193Z,101137.06
2022-10-31T05:53:09.580Z,101147.94
2022-10-31T05:55:38.101Z,101146.22
2022-10-31T05:58:21.932Z,101155.78
2022-10-31T06:00:54.499Z,101150.22
2022-10-31T06:03:21.130Z,101148.78
2022-10-31T06:05:55.053Z,101151.88
2022-10-31T06:08:25.158Z,101148.25
2022-10-31T06:10:53.959Z,101146.25
2022-10-31T06:13:28.869Z,101146.19
2022-10-31T06:16:01.798Z,101145.78
2022-10-31T06:18:34.680Z,101144.38
2022-10-31T06:21:01.380Z,101145.63
2022-10-31T06:23:28.863Z,101153.53
2022-10-31T06:26:15.424Z,101159.47
2022-10-31T06:28:42.126Z,101157.53
2022-10-31T06:31:27.190Z,101166.16
2022-10-31T06:33:54.047Z,101173.88
2022-10-31T06:36:21.039Z,101171.16
2022-10-31T06:38:47.638Z,101170.75
2022-10-31T06:41:16.831Z,101163.50
2022-10-31T06:43:48.169Z,101165.41
2022-10-31T06:46:37.892Z,101177.06
2022-10-31T06:49:23.466Z,101179.69
2022-10-31T06:51:54.089Z,101175.91
2022-10-31T06:54:22.298Z,101181.50
2022-10-31T06:56:49.588Z,101187.31
2022-10-31T06:59:16.630Z,101174.28
2022-10-31T07:02:12.295Z,101184.16
2022-10-31T07:04:40.369Z,101186.66
2022-10-31T07:07:07.886Z,101182.34
2022-10-31T07:09:35.735Z,101184.44
2022-10-31T07:12:04.383Z,101184.53
2022-10-31T07:14:33.417Z,101182.63
2022-10-31T07:17:01.031Z,101192.66
2022-10-31T07:19:33.658Z,101196.34
2022-10-31T07:22:00.220Z,101201.69
2022-10-31T07:24:29.290Z,101193.72
2022-10-31T07:27:14.587Z,101191.59
2022-10-31T07:29:44.778Z,101186.09
2022-10-31T07:32:12.154Z,101197.16
2022-10-31T07:34:47.475Z,101201.09
2022-10-31T07:37:22.673Z,101205.16
2022-10-31T07:39:49.506Z,101198.13
2022-10-31T07:42:16.585Z,101204.75
2022-10-31T07:44:45.233Z,101208.13
2022-10-31T07:47:30.837Z,101212.81
2022-10-31T07:50:19.856Z,101207.31
2022-10-31T07:53:14.055Z,101212.53
2022-10-31T07:55:53.509Z,101219.72
2022-10-31T07:58:20.189Z,101213.50
2022-10-31T08:00:48.381Z,101213.91
2022-10-31T08:03:21.615Z,101219.94
2022-10-31T08:06:10.808Z,101216.34
2022-10-31T08:08:55.787Z,101203.25
2022-10-31T08:11:23.131Z,101207.75
2022-10-31T08:13:50.122Z,101211.84
2022-10-31T08:16:16.760Z,101208.91
2022-10-31T08:18:51.732Z,101203.66
2022-10-31T08:21:19.469Z,101209.38
2022-10-31T08:23:46.326Z,101203.94
2022-10-31T08:26:14.320Z,101215.94
2022-10-31T08:28:40.979Z,101210.09
2022-10-31T08:31:07.599Z,101207.16
2022-10-31T08:33:39.790Z,101207.22
2022-10-31T08:36:32.514Z,101209.03
2022-10-31T08:39:06.046Z,101216.50
2022-10-31T08:41:33.213Z,101221.13
2022-10-31T08:44:00.872Z,101215.84
2022-10-31T08:46:27.526Z,101206.34
2022-10-31T08:48:54.094Z,101202.09
2022-10-31T08:51:21.171Z,101209.00
2022-10-31T08:53:51.425Z,101210.75
2022-10-31T08:56:33.126Z,101209.34
2022-10-31T08:59:02.171Z,101204.94
2022-10-31T09:01:54.702Z,101201.78
2022-10-31T09:04:21.717Z,101204.75
2022-10-31T09:07:19.711Z,101198.63
2022-10-31T09:09:34.977Z,101191.09
2022-10-31T09:12:02.037Z,101193.81
2022-10-31T09:14:47.016Z,101188.81
2022-10-31T09:17:27.668Z,101190.47
2022-10-31T09:20:14.419Z,101202.19
2022-10-31T09:22:43.024Z,101192.59
2022-10-31T09:25:10.108Z,101194.03
2022-10-31T09:27:37.953Z,101188.34
2022-10-31T09:30:07.163Z,101193.34
2022-10-31T09:32:33.985Z,101186.03
2022-10-31T09:35:00.760Z,101182.88
2022-10-31T09:37:28.522Z,101188.50
2022-10-31T09:39:55.185Z,101193.84
2022-10-31T09:42:49.183Z,101192.81
2022-10-31T09:45:44.224Z,101194.88
2022-10-31T09:48:50.506Z,101185.81
2022-10-31T09:51:49.183Z,101191.03
2022-10-31T09:54:45.991Z,101188.84
2022-10-31T09:57:19.646Z,101184.47
2022-10-31T09:59:50.347Z,101185.19
2022-10-31T10:02:24.055Z,101186.81
2022-10-31T10:04:57.996Z,101176.13
2022-10-31T10:08:09.605Z,101180.34
2022-10-31T10:11:27.116Z,101176.22
2022-10-31T10:14:05.465Z,101181.69
2022-10-31T10:16:53.380Z,101183.59
2022-10-31T10:19:49.585Z,101183.31
2022-10-31T10:22:43.250Z,101183.44
2022-10-31T10:25:21.737Z,101188.63
2022-10-31T10:28:21.258Z,101189.03
2022-10-31T10:31:11.207Z,101179.75
2022-10-31T10:33:42.344Z,101188.88
2022-10-31T10:36:26.840Z,101186.41
2022-10-31T10:39:00.006Z,101180.53
2022-10-31T10:41:34.282Z,101179.09
2022-10-31T10:44:01.487Z,101185.78
2022-10-31T10:47:01.026Z,101182.66
2022-10-31T10:49:52.680Z,101172.84
2022-10-31T10:52:44.764Z,101177.53
2022-10-31T10:55:31.598Z,101182.41
2022-10-31T10:58:04.469Z,101176.31
2022-10-31T11:00:35.798Z,101172.34
2022-10-31T11:03:02.884Z,101161.19
2022-10-31T11:05:37.785Z,101168.72
2022-10-31T11:08:05.846Z,101166.78
2022-10-31T11:10:34.158Z,101157.56
2022-10-31T11:13:10.794Z,101168.97
2022-10-31T11:15:51.141Z,101163.09
2022-10-31T11:20:55.990Z,101168.44
2022-10-31T11:23:25.012Z,101161.13
2022-10-31T11:26:04.834Z,101164.06
2022-10-31T11:28:35.200Z,101164.06
2022-10-31T11:31:06.336Z,101168.47
2022-10-31T11:33:36.522Z,101164.19
2022-10-31T11:36:15.634Z,101164.94
2022-10-31T11:38:44.137Z,101163.53
2022-10-31T11:41:28.548Z,101158.47
2022-10-31T11:44:05.528Z,101154.16
2022-10-31T11:46:34.780Z,101149.75
2022-10-31T11:49:04.001Z,101152.00
2022-10-31T11:51:33.744Z,101149.78
2022-10-31T11:54:05.390Z,101141.44
2022-10-31T11:56:42.865Z,101143.38
2022-10-31T11:59:30.213Z,101130.41
2022-10-31T12:01:59.068Z,101140.00
2022-10-31T12:04:45.347Z,101131.50
2022-10-31T12:07:12.276Z,101133.06
2022-10-31T12:09:39.457Z,101138.69
2022-10-31T12:12:09.013Z,101127.75
2022-10-31T12:14:45.686Z,101133.97
2022-10-31T12:17:20.896Z,101133.22
2022-10-31T12:20:06.714Z,101137.41
2022-10-31T12:22:55.753Z,101130.66
2022-10-31T12:25:37.501Z,101133.75
2022-10-31T12:28:20.793Z,101131.25
2022-10-31T12:30:50.016Z,101132.41
2022-10-31T12:33:30.868Z,101129.38
2022-10-31T12:36:15.328Z,101118.09
2022-10-31T12:38:49.540Z,101106.06
2022-10-31T12:41:28.175Z,101110.91
2022-10-31T12:44:07.636Z,101101.72
2022-10-31T12:47:11.553Z,101093.94
2022-10-31T12:49:53.105Z,101083.78
2022-10-31T12:52:41.173Z,101075.84
2022-10-31T12:55:53.347Z,101076.06
2022-10-31T12:58:28.054Z,101070.75
2022-10-31T13:01:09.040Z,101070.34
2022-10-31T13:04:02.514Z,101070.41
2022-10-31T13:06:39.492Z,101070.50
2022-10-31T13:09:13.805Z,101066.94
2022-10-31T13:11:46.004Z,101069.25
2022-10-31T13:14:21.387Z,101063.59
2022-10-31T13:16:49.032Z,101056.91
2022-10-31T13:19:24.701Z,101047.53
2022-10-31T13:21:51.177Z,101047.59
2022-10-31T13:24:24.383Z,101039.94
2022-10-31T13:26:58.091Z,101043.16
2022-10-31T13:29:35.232Z,101030.91
2022-10-31T13:32:06.169Z,101026.91
2022-10-31T13:34:46.342Z,101024.97
2022-10-31T13:37:31.507Z,101016.34
2022-10-31T13:40:13.937Z,101025.28
2022-10-31T13:42:46.473Z,101019.13
2022-10-31T13:45:17.842Z,101010.22
2022-10-31T13:47:55.323Z,101000.97
2022-10-31T13:50:31.107Z,100985.91
2022-10-31T13:53:20.630Z,100976.69
2022-10-31T13:55:48.428Z,100972.91
2022-10-31T13:58:25.836Z,100964.13
2022-10-31T14:01:19.676Z,100949.91
2022-10-31T14:04:12.252Z,100942.97
2022-10-31T14:06:54.429Z,100957.84
2022-10-31T14:09:33.969Z,100972.41
2022-10-31T14:12:12.844Z,100969.75
2022-10-31T14:14:48.522Z,100962.47
2022-10-31T14:17:26.599Z,100950.91
2022-10-31T14:20:01.729Z,100937.31
2022-10-31T14:22:36.354Z,100930.03
2022-10-31T14:25:33.226Z,100930.50
2022-10-31T14:28:03.300Z,100924.59
2022-10-31T14:30:31.420Z,100912.47
2022-10-31T14:33:03.481Z,100906.91
2022-10-31T14:35:57.830Z,100909.69
2022-10-31T14:38:45.757Z,100909.88
2022-10-31T14:41:29.278Z,100901.41
2022-10-31T14:44:26.479Z,100901.34
2022-10-31T14:47:10.354Z,100900.22
2022-10-31T14:49:58.930Z,100884.53
2022-10-31T14:52:26.014Z,100885.53
2022-10-31T14:54:55.757Z,100880.84
2022-10-31T14:57:33.772Z,100885.84
2022-10-31T15:00:06.036Z,100886.28
2022-10-31T15:02:39.725Z,100877.47
2022-10-31T15:05:11.228Z,100880.00
2022-10-31T15:07:50.627Z,100883.56
2022-10-31T15:10:23.589Z,100892.31
2022-10-31T15:12:50.565Z,100878.25
2022-10-31T15:15:27.617Z,100884.16
2022-10-31T15:18:00.687Z,100881.22
2022-10-31T15:20:31.458Z,100881.22
2022-10-31T15:23:00.181Z,100881.47
2022-10-31T15:25:31.106Z,100876.81
2022-10-31T15:27:58.011Z,100877.22
2022-10-31T15:30:27.995Z,100870.84
2022-10-31T15:32:58.654Z,100857.38
2022-10-31T15:35:31.463Z,100857.38
2022-10-31T15:38:00.298Z,100847.22
2022-10-31T15:40:29.251Z,100841.41
2022-10-31T15:43:00.108Z,100833.16
2022-10-31T15:45:28.906Z,100835.84
2022-10-31T15:47:59.325Z,100828.53
2022-10-31T15:50:41.175Z,100823.91
2022-10-31T15:53:29.135Z,100819.41
2022-10-31T15:56:17.252Z,100818.59
2022-10-31T15:58:46.437Z,100811.72
2022-10-31T16:01:33.696Z,100806.25
2022-10-31T16:04:23.685Z,100803.06
2022-10-31T16:07:02.974Z,100799.91
2022-10-31T16:09:29.869Z,100796.81
2022-10-31T16:11:59.367Z,100796.81
2022-10-31T16:14:38.059Z,100799.81
2022-10-31T16:17:04.625Z,100802.78
2022-10-31T16:19:34.983Z,100799.28
2022-10-31T16:22:13.053Z,100789.16
2022-10-31T16:24:52.754Z,100797.28
2022-10-31T16:27:26.509Z,100786.94
2022-10-31T16:29:53.726Z,100790.06
2022-10-31T16:32:56.337Z,100781.03
2022-10-31T16:35:36.014Z,100783.66
2022-10-31T16:38:03.282Z,100784.38
2022-10-31T16:40:31.283Z,100798.13
2022-10-31T16:43:00.123Z,100793.91
2022-10-31T16:45:30.178Z,100791.63
2022-10-31T16:48:05.217Z,100783.63
2022-10-31T16:50:31.807Z,100783.38
2022-10-31T16:53:13.390Z,100781.84
2022-10-31T16:55:56.656Z,100785.91
2022-10-31T16:58:28.652Z,100787.84
2022-10-31T17:00:55.395Z,100780.19
2022-10-31T17:03:22.068Z,100785.63
2022-10-31T17:05:49.072Z,100785.75
2022-10-31T17:08:16.397Z,100783.38
2022-10-31T17:10:45.243Z,100777.53
2022-10-31T17:13:18.001Z,100777.53
2022-10-31T17:15:50.196Z,100774.25
2022-10-31T17:18:20.563Z,100774.38
2022-10-31T17:20:55.689Z,100770.22
2022-10-31T17:23:22.318Z,100768.16
2022-10-31T17:25:48.878Z,100770.72
2022-10-31T17:28:15.674Z,100764.66
2022-10-31T17:30:42.999Z,100760.69
2022-10-31T17:33:15.082Z,100748.19
2022-10-31T17:35:45.948Z,100754.75
2022-10-31T17:38:13.296Z,100760.16
2022-10-31T17:40:44.108Z,100764.16
2022-10-31T17:43:11.312Z,100770.19
2022-10-31T17:45:42.108Z,100750.34
2022-10-31T17:48:12.913Z,100744.53
2022-10-31T17:50:39.661Z,100745.38
2022-10-31T17:53:06.240Z,100743.00
2022-10-31T17:55:37.158Z,100736.16
2022-10-31T17:58:05.264Z,100727.94
2022-10-31T18:00:31.925Z,100736.88
2022-10-31T18:02:58.900Z,100736.06
2022-10-31T18:05:25.732Z,100733.88
2022-10-31T18:07:52.457Z,100726.63
2022-10-31T18:10:19.164Z,100734.75
2022-10-31T18:12:46.004Z,100746.84
2022-10-31T18:15:12.619Z,100761.66
2022-10-31T18:17:42.010Z,100764.44
2022-10-31T18:20:10.200Z,100761.50
2022-10-31T18:22:36.845Z,100753.63
2022-10-31T18:25:04.466Z,100755.38
2022-10-31T18:27:31.638Z,100750.59
2022-10-31T18:29:58.216Z,100751.91
2022-10-31T18:32:24.815Z,100753.94
2022-10-31T18:34:51.391Z,100740.31
2022-10-31T18:37:18.220Z,100728.47
2022-10-31T18:39:44.905Z,100731.69
2022-10-31T18:42:11.542Z,100734.06
2022-10-31T18:44:38.247Z,100710.00
2022-10-31T18:47:04.924Z,100694.63
2022-10-31T18:49:32.718Z,100695.97
2022-10-31T18:52:00.153Z,100675.94
2022-10-31T18:54:27.136Z,100693.69
2022-10-31T18:56:54.541Z,100705.22
2022-10-31T18:59:21.402Z,100713.19
2022-10-31T19:01:48.093Z,100722.59
2022-10-31T19:04:14.716Z,100722.38
2022-10-31T19:06:41.286Z,100714.84
2022-10-31T19:09:09.703Z,100710.53
2022-10-31T19:11:37.716Z,100700.63
2022-10-31T19:14:08.157Z,100689.72
2022-10-31T19:16:35.185Z,100694.34
2022-10-31T19:19:01.839Z,100679.34
2022-10-31T19:21:30.325Z,100673.75
2022-10-31T19:23:58.052Z,100679.56
2022-10-31T19:26:26.410Z,100678.38
2022-10-31T19:28:53.435Z,100680.84
2022-10-31T19:31:20.042Z,100674.41
2022-10-31T19:33:47.043Z,100671.84
2022-10-31T19:36:15.878Z,100665.41
2022-10-31T19:38:44.982Z,100646.97
2022-10-31T19:41:14.378Z,100646.72
2022-10-31T19:43:41.345Z,100629.50
2022-10-31T19:46:17.463Z,100635.09
2022-10-31T19:48:55.173Z,100629.13
2022-10-31T19:51:22.572Z,100630.22
2022-10-31T19:53:52.431Z,100630.25
2022-10-31T19:56:21.425Z,100634.97
2022-10-31T19:58:48.397Z,100630.97
2022-10-31T20:01:20.323Z,100620.47
2022-10-31T20:03:48.542Z,100621.28
2022-10-31T20:06:30.641Z,100620.63
2022-10-31T20:08:57.617Z,100617.69
2022-10-31T20:11:28.015Z,100618.00
2022-10-31T20:13:56.402Z,100607.03
2022-10-31T20:16:24.125Z,100608.94
2022-10-31T20:18:50.762Z,100606.78
2022-10-31T20:21:20.246Z,100602.63
2022-10-31T20:23:50.606Z,100590.72
2022-10-31T20:26:19.198Z,100597.25
2022-10-31T20:28:46.955Z,100602.66
2022-10-31T20:31:22.744Z,100588.78
2022-10-31T20:33:50.153Z,100580.09
2022-10-31T20:36:23.689Z,100574.78
2022-10-31T20:38:52.204Z,100557.31
2022-10-31T20:41:19.442Z,100564.75
2022-10-31T20:43:46.256Z,100560.44
2022-10-31T20:46:19.237Z,100561.34
2022-10-31T20:48:46.164Z,100556.00
2022-10-31T20:51:17.931Z,100560.94
2022-10-31T20:53:45.242Z,100553.88
2022-10-31T20:56:16.107Z,100554.31
2022-10-31T20:58:43.632Z,100546.69
2022-10-31T21:01:18.855Z,100545.41
2022-10-31T21:03:46.443Z,100548.00
2022-10-31T21:06:13.866Z,100542.84
2022-10-31T21:08:40.586Z,100546.47
2022-10-31T21:11:18.759Z,100540.13
2022-10-31T21:13:46.767Z,100546.97
2022-10-31T21:16:19.510Z,100550.81
2022-10-31T21:18:47.698Z,100557.88
2022-10-31T21:21:21.765Z,100560.84
2022-10-31T21:23:53.022Z,100561.59
2022-10-31T21:26:21.351Z,100570.84
2022-10-31T21:28:49.707Z,100571.03
2022-10-31T21:31:17.751Z,100557.97
2022-10-31T21:33:45.519Z,100558.47
2022-10-31T21:36:13.048Z,100557.19
2022-10-31T21:38:40.081Z,100546.91
2022-10-31T21:41:14.742Z,100530.69
2022-10-31T21:43:44.046Z,100528.88
2022-10-31T21:46:12.900Z,100514.22
2022-10-31T21:48:44.012Z,100510.47
2022-10-31T21:51:22.085Z,100515.06
2022-10-31T21:54:07.691Z,100515.53
2022-10-31T21:56:34.720Z,100508.19
2022-10-31T21:59:01.965Z,100507.97
2022-10-31T22:01:29.549Z,100496.78
2022-10-31T22:03:57.179Z,100492.22
2022-10-31T22:06:27.777Z,100493.19
2022-10-31T22:08:54.366Z,100502.03
2022-10-31T22:11:21.836Z,100503.19
2022-10-31T22:13:50.373Z,100505.25
2022-10-31T22:16:19.422Z,100501.91
2022-10-31T22:18:46.673Z,100499.78
2022-10-31T22:21:17.818Z,100486.94
2022-10-31T22:23:49.507Z,100493.63
2022-10-31T22:26:16.211Z,100496.72
2022-10-31T22:28:47.668Z,100479.78
2022-10-31T22:31:17.066Z,100484.66
2022-10-31T22:33:44.501Z,100481.56
2022-10-31T22:36:14.571Z,100477.16
2022-10-31T22:38:41.986Z,100467.78
2022-10-31T22:41:14.398Z,100462.44
2022-10-31T22:43:41.410Z,100456.16
2022-10-31T22:46:11.870Z,100452.63
2022-10-31T22:48:41.594Z,100462.66
2022-10-31T22:51:29.604Z,100458.59
2022-10-31T22:53:56.763Z,100460.91
2022-10-31T22:56:26.352Z,100466.56
2022-10-31T22:58:53.645Z,100455.50
2022-10-31T23:01:23.213Z,100457.19
2022-10-31T23:03:50.265Z,100457.66
2022-10-31T23:06:19.407Z,100466.84
2022-10-31T23:08:47.023Z,100451.31
2022-10-31T23:11:18.981Z,100439.44
2022-10-31T23:14:08.901Z,100433.06
2022-10-31T23:16:47.081Z,100441.72
2022-10-31T23:19:20.600Z,100429.44
2022-10-31T23:21:55.588Z,100438.16
2022-10-31T23:24:36.599Z,100443.03
2022-10-31T23:27:10.616Z,100441.19
2022-10-31T23:29:55.196Z,100444.00
2022-10-31T23:32:30.143Z,100441.56
2022-10-31T23:34:59.328Z,100449.94
2022-10-31T23:37:28.815Z,100448.38
2022-10-31T23:39:55.968Z,100442.16
2022-10-31T23:42:23.664Z,100438.50
2022-10-31T23:44:50.541Z,100434.31
2022-10-31T23:47:18.074Z,100431.25
2022-10-31T23:49:44.784Z,100425.44
2022-10-31T23:52:12.037Z,100416.91
2022-10-31T23:54:39.954Z,100417.22
2022-10-31T23:57:06.861Z,100412.78
2022-10-31T23:59:33.469Z,100403.47
